Time;durP1;ratioP1;P1;durP2;ratioP2;P2;SDS_P1;SDS_P2;PMS_P1;PMS_P2;Temp;Humidity;BMP_temperature;BMP_pressure;BME280_temperature;BME280_humidity;BME280_pressure;Samples;Min_cycle;Max_cycle;Signal;HPM_P1;HPM_P2
2021/04/01 00:00:22;;;;;;;10.63;6.00;;;11.60;62.20;;;;;;5021695;28;20572;-64
2021/04/01 00:02:51;;;;;;;8.98;6.03;;;11.60;62.30;;;;;;5018765;28;20095;-63
2021/04/01 00:05:18;;;;;;;15.23;6.75;;;11.50;62.90;;;;;;5031907;28;20467;-63
2021/04/01 00:07:44;;;;;;;10.23;6.15;;;11.40;62.00;;;;;;5022086;28;20037;-63
2021/04/01 00:10:13;;;;;;;9.13;5.53;;;11.40;62.60;;;;;;5024943;28;20535;-63
2021/04/01 00:12:39;;;;;;;8.98;5.35;;;11.30;63.70;;;;;;5029454;28;20069;-63
2021/04/01 00:15:07;;;;;;;9.05;5.80;;;11.30;62.60;;;;;;5032263;28;20496;-63
2021/04/01 00:17:34;;;;;;;9.85;5.88;;;11.30;63.20;;;;;;5034290;28;20037;-63
2021/04/01 00:20:00;;;;;;;11.65;6.55;;;11.20;63.70;;;;;;5031966;28;20037;-63
2021/04/01 00:22:26;;;;;;;12.57;6.30;;;11.20;64.10;;;;;;5027364;28;20037;-63
2021/04/01 00:24:52;;;;;;;11.30;5.75;;;11.20;64.20;;;;;;5023454;28;20036;-63
2021/04/01 00:27:17;;;;;;;11.82;6.28;;;11.20;64.50;;;;;;5020020;28;20108;-63
2021/04/01 00:29:43;;;;;;;11.48;6.03;;;11.10;64.80;;;;;;5016643;28;20689;-63
2021/04/01 00:32:09;;;;;;;10.88;5.72;;;11.10;65.10;;;;;;5017461;28;20033;-63
2021/04/01 00:34:34;;;;;;;12.77;6.15;;;11.10;65.00;;;;;;5021385;28;20481;-63
2021/04/01 00:37:00;;;;;;;10.07;6.53;;;11.20;64.70;;;;;;5023639;28;20764;-63
2021/04/01 00:39:25;;;;;;;10.15;6.00;;;11.20;64.80;;;;;;5028762;28;20033;-63
2021/04/01 00:41:51;;;;;;;10.07;6.22;;;11.20;64.90;;;;;;5031888;28;20507;-63
2021/04/01 00:44:17;;;;;;;10.63;5.93;;;11.30;64.90;;;;;;5035069;28;20025;-63
2021/04/01 00:46:47;;;;;;;10.90;6.32;;;11.30;64.70;;;;;;5032039;28;20509;-63
2021/04/01 00:49:13;;;;;;;11.18;6.30;;;11.40;64.60;;;;;;5029248;28;20139;-63
2021/04/01 00:51:38;;;;;;;10.30;6.43;;;11.30;65.40;;;;;;5024325;28;20893;-64
2021/04/01 00:54:04;;;;;;;9.80;6.03;;;11.40;64.90;;;;;;5022476;28;20033;-63
2021/04/01 00:56:30;;;;;;;8.45;5.57;;;11.30;65.00;;;;;;5018185;28;20037;-63
2021/04/01 00:58:56;;;;;;;7.70;5.78;;;11.30;65.00;;;;;;5016223;28;20441;-63
2021/04/01 01:03:48;;;;;;;10.77;6.75;;;11.20;64.80;;;;;;5030621;28;20152;-63
2021/04/01 01:06:14;;;;;;;10.30;6.43;;;11.10;65.30;;;;;;5027540;28;20029;-63
2021/04/01 01:08:40;;;;;;;8.70;6.38;;;11.10;66.10;;;;;;5022417;28;20673;-64
2021/04/01 01:11:05;;;;;;;9.32;6.05;;;11.00;66.20;;;;;;5021056;28;20118;-63
2021/04/01 01:13:31;;;;;;;10.55;6.25;;;11.00;66.60;;;;;;5020128;28;20033;-62
2021/04/01 01:15:57;;;;;;;11.70;6.40;;;11.00;66.00;;;;;;5023358;28;20083;-63
2021/04/01 01:18:26;;;;;;;18.00;6.55;;;11.10;65.80;;;;;;5027212;28;20033;-63
2021/04/01 01:20:52;;;;;;;10.98;6.60;;;11.10;65.90;;;;;;5029860;28;20752;-63
2021/04/01 01:23:18;;;;;;;12.80;6.50;;;11.10;66.40;;;;;;5033850;28;20038;-63
2021/04/01 01:25:44;;;;;;;10.98;6.65;;;11.10;66.00;;;;;;5036361;28;20037;-63
2021/04/01 01:28:10;;;;;;;10.45;5.95;;;11.20;65.60;;;;;;5035158;28;20863;-64
2021/04/01 01:30:36;;;;;;;12.80;7.38;;;11.20;65.60;;;;;;5031103;28;20054;-63
2021/04/01 01:33:06;;;;;;;12.50;7.63;;;11.30;64.80;;;;;;5027298;28;20041;-63
2021/04/01 01:35:35;;;;;;;11.57;7.03;;;11.30;65.50;;;;;;5031275;28;20691;-63
2021/04/01 01:38:05;;;;;;;15.35;7.00;;;11.40;65.60;;;;;;5021056;28;20086;-63
2021/04/01 01:40:32;;;;;;;11.25;6.93;;;11.40;66.30;;;;;;5017910;28;20029;-63
2021/04/01 01:43:00;;;;;;;12.02;6.93;;;11.40;65.10;;;;;;5020596;28;20191;-63
2021/04/01 01:45:28;;;;;;;13.90;8.00;;;11.40;65.00;;;;;;5025463;28;20037;-63
2021/04/01 01:47:54;;;;;;;14.88;7.45;;;11.50;65.80;;;;;;5029094;28;20749;-63
2021/04/01 01:50:21;;;;;;;12.65;6.68;;;11.50;65.80;;;;;;5032628;28;20049;-63
2021/04/01 01:52:48;;;;;;;11.63;7.00;;;11.60;66.00;;;;;;5035306;28;20099;-63
2021/04/01 01:55:14;;;;;;;15.25;7.90;;;11.60;65.50;;;;;;5036307;28;20037;-63
2021/04/01 01:57:40;;;;;;;11.73;7.72;;;11.60;65.30;;;;;;5031965;28;20651;-64
2021/04/01 02:00:09;;;;;;;11.25;7.13;;;11.60;64.90;;;;;;5028518;28;20086;-63
2021/04/01 02:02:36;;;;;;;12.98;7.57;;;11.60;64.30;;;;;;5024628;28;20035;-63
2021/04/01 02:05:04;;;;;;;17.35;8.15;;;11.70;64.40;;;;;;5033289;28;20554;-63
2021/04/01 02:07:30;;;;;;;12.85;7.60;;;11.70;64.90;;;;;;5036221;28;20091;-63
2021/04/01 02:09:56;;;;;;;13.48;7.65;;;11.70;65.20;;;;;;5036588;28;20558;-63
2021/04/01 02:12:21;;;;;;;16.08;7.82;;;11.70;63.80;;;;;;5033098;28;20946;-63
2021/04/01 02:14:47;;;;;;;12.90;7.38;;;11.80;63.60;;;;;;5029712;28;20138;-63
2021/04/01 02:17:20;;;;;;;13.52;7.65;;;11.80;64.30;;;;;;5025263;28;20076;-63
2021/04/01 02:19:46;;;;;;;15.90;7.80;;;11.80;64.30;;;;;;5017959;28;20025;-63
2021/04/01 02:22:12;;;;;;;15.13;8.13;;;11.80;64.60;;;;;;5018206;28;20056;-63
2021/04/01 02:24:37;;;;;;;13.55;7.57;;;11.80;64.60;;;;;;5020876;28;20041;-63
2021/04/01 02:27:03;;;;;;;14.32;7.35;;;11.90;65.00;;;;;;5024343;28;20044;-62
2021/04/01 02:29:29;;;;;;;11.25;7.25;;;11.80;65.50;;;;;;5028308;28;20891;-64
2021/04/01 02:31:55;;;;;;;16.95;8.52;;;11.80;64.20;;;;;;5031876;28;20063;-63
2021/04/01 02:34:20;;;;;;;15.63;8.52;;;11.80;64.10;;;;;;5035983;28;20060;-65
2021/04/01 02:36:46;;;;;;;14.05;8.40;;;11.80;64.10;;;;;;5034889;28;20114;-63
2021/04/01 02:39:12;;;;;;;13.48;8.30;;;11.90;64.30;;;;;;5031812;28;20030;-63
2021/04/01 02:41:38;;;;;;;14.65;9.30;;;11.90;64.60;;;;;;5027283;28;20148;-63
2021/04/01 02:44:04;;;;;;;18.58;8.90;;;11.90;64.60;;;;;;5024104;28;20133;-63
2021/04/01 02:46:30;;;;;;;15.85;9.73;;;11.90;64.80;;;;;;5018827;28;20041;-63
2021/04/01 02:48:55;;;;;;;15.40;8.68;;;11.90;64.90;;;;;;5017266;28;20052;-63
2021/04/01 02:51:21;;;;;;;16.35;8.52;;;11.90;65.10;;;;;;5018411;28;20033;-63
2021/04/01 02:53:47;;;;;;;15.10;8.18;;;11.90;65.00;;;;;;5023067;28;20032;-63
2021/04/01 02:56:12;;;;;;;16.42;8.77;;;11.90;64.80;;;;;;5026301;28;20212;-63
2021/04/01 02:58:38;;;;;;;15.27;8.88;;;11.90;64.60;;;;;;5028983;28;20037;-63
2021/04/01 03:01:05;;;;;;;18.08;8.57;;;11.90;64.50;;;;;;5032603;28;20071;-63
2021/04/01 03:03:34;;;;;;;13.18;8.35;;;11.90;64.90;;;;;;5033273;28;20154;-63
2021/04/01 03:06:01;;;;;;;17.13;9.57;;;11.90;65.10;;;;;;5032334;28;20059;-63
2021/04/01 03:08:27;;;;;;;12.48;8.07;;;11.90;65.70;;;;;;5028214;28;20045;-63
2021/04/01 03:10:53;;;;;;;15.48;8.43;;;12.00;65.40;;;;;;5026921;28;20041;-63
2021/04/01 03:13:18;;;;;;;14.15;8.63;;;12.00;65.00;;;;;;5030443;28;20033;-64
2021/04/01 03:15:44;;;;;;;14.73;8.48;;;12.00;65.20;;;;;;5033485;28;20083;-64
2021/04/01 03:18:10;;;;;;;18.30;9.32;;;12.00;65.70;;;;;;5033264;28;20055;-63
2021/04/01 03:20:36;;;;;;;15.73;9.63;;;12.10;64.70;;;;;;5030375;28;20101;-63
2021/04/01 03:23:02;;;;;;;13.88;8.48;;;12.10;64.60;;;;;;5028096;28;20032;-63
2021/04/01 03:25:27;;;;;;;16.48;9.70;;;12.10;64.10;;;;;;5023756;28;20040;-63
2021/04/01 03:27:54;;;;;;;16.27;9.50;;;12.10;64.00;;;;;;5021330;28;20030;-63
2021/04/01 03:30:19;;;;;;;16.40;9.38;;;12.00;63.90;;;;;;5015782;28;20045;-64
2021/04/01 03:32:47;;;;;;;17.13;9.10;;;12.00;63.70;;;;;;5018062;28;20119;-63
2021/04/01 03:35:15;;;;;;;14.80;9.30;;;12.00;63.40;;;;;;5021473;28;20033;-63
2021/04/01 03:37:43;;;;;;;15.75;9.15;;;12.00;64.30;;;;;;5024846;28;20140;-63
2021/04/01 03:40:09;;;;;;;18.38;8.95;;;12.00;64.30;;;;;;5028127;28;20068;-63
2021/04/01 03:42:38;;;;;;;14.52;9.23;;;11.90;64.40;;;;;;5031473;28;20028;-63
2021/04/01 03:45:06;;;;;;;16.20;9.20;;;11.90;65.00;;;;;;5032803;28;20029;-63
2021/04/01 03:47:32;;;;;;;15.18;8.93;;;11.90;64.70;;;;;;5030820;28;20063;-64
2021/04/01 03:49:58;;;;;;;17.33;9.43;;;11.90;64.50;;;;;;5034706;28;20144;-63
2021/04/01 03:52:23;;;;;;;19.80;9.20;;;11.90;64.40;;;;;;5026368;28;20040;-63
2021/04/01 03:54:53;;;;;;;17.48;9.32;;;11.90;64.00;;;;;;5031612;28;20854;-63
2021/04/01 03:57:19;;;;;;;17.65;9.43;;;11.90;64.00;;;;;;5033271;28;20048;-63
2021/04/01 04:00:20;;;;;;;15.23;8.98;;;11.90;64.20;;;;;;5032192;28;20405;-63
2021/04/01 04:05:26;;;;;;;18.05;9.63;;;11.90;64.80;;;;;;5026760;28;20095;-63
2021/04/01 04:15:49;;;;;;;18.00;10.05;;;11.80;66.10;;;;;;5033189;28;20041;-63
2021/04/01 04:18:15;;;;;;;14.82;9.38;;;11.80;66.10;;;;;;5025652;28;20079;-63
2021/04/01 04:20:41;;;;;;;15.82;9.27;;;11.80;66.00;;;;;;5028808;28;20420;-62
2021/04/01 04:23:09;;;;;;;18.00;9.40;;;11.80;66.10;;;;;;5032385;28;20044;-62
2021/04/01 04:25:36;;;;;;;16.75;9.48;;;11.80;65.80;;;;;;5035758;28;20039;-64
2021/04/01 04:30:31;;;;;;;19.25;10.73;;;11.80;66.60;;;;;;5029623;28;20838;-62
2021/04/01 04:32:57;;;;;;;16.15;9.02;;;11.80;66.60;;;;;;5029348;28;20033;-63
2021/04/01 04:35:23;;;;;;;18.13;9.95;;;11.80;65.80;;;;;;5027213;28;20048;-63
2021/04/01 04:37:49;;;;;;;16.95;9.40;;;11.80;66.10;;;;;;5028939;28;20042;-63
2021/04/01 04:40:15;;;;;;;18.77;9.88;;;11.80;66.30;;;;;;5030715;28;20795;-63
2021/04/01 04:42:40;;;;;;;15.65;9.65;;;11.70;66.00;;;;;;5035182;28;20033;-63
2021/04/01 04:45:08;;;;;;;15.93;9.32;;;11.80;66.50;;;;;;5030522;28;20025;-63
2021/04/01 04:47:34;;;;;;;16.23;7.82;;;11.80;66.60;;;;;;5034714;28;20065;-63
2021/04/01 04:50:00;;;;;;;15.52;9.45;;;11.80;66.90;;;;;;5032439;28;20506;-63
2021/04/01 04:52:26;;;;;;;15.23;9.27;;;11.80;66.30;;;;;;5029992;28;20033;-63
2021/04/01 04:54:52;;;;;;;17.10;8.98;;;11.80;65.90;;;;;;5025836;28;20091;-63
2021/04/01 05:05:50;;;;;;;16.55;8.57;;;11.90;66.70;;;;;;5035267;28;20040;-63
2021/04/01 05:08:17;;;;;;;18.25;9.10;;;11.90;66.60;;;;;;5038857;28;20064;-63
2021/04/01 05:10:42;;;;;;;14.55;8.80;;;12.00;66.60;;;;;;5033071;28;20037;-63
2021/04/01 05:13:09;;;;;;;17.90;9.63;;;12.00;65.80;;;;;;5026668;28;20056;-63
2021/04/01 05:15:41;;;;;;;18.90;10.50;;;12.00;65.70;;;;;;5029437;28;20033;-64
2021/04/01 05:20:42;;;;;;;17.13;9.88;;;12.10;65.70;;;;;;5031675;28;20036;-63
2021/04/01 05:23:32;;;;;;;18.45;9.98;;;12.10;66.00;;;;;;5030353;28;20049;-64
2021/04/01 05:28:33;;;;;;;15.20;9.55;;;12.30;65.20;;;;;;5029678;28;20033;-62
2021/04/01 05:31:00;;;;;;;20.30;9.40;;;12.30;65.20;;;;;;5035504;28;20065;-63
2021/04/01 05:33:32;;;;;;;20.80;11.13;;;12.30;64.80;;;;;;5025419;28;20373;-63
2021/04/01 05:35:59;;;;;;;22.13;10.70;;;12.40;65.20;;;;;;5036996;28;20033;-63
2021/04/01 05:38:24;;;;;;;20.67;10.00;;;12.40;65.10;;;;;;5035978;28;20120;-62
2021/04/01 05:40:51;;;;;;;18.95;10.00;;;12.50;65.70;;;;;;5034217;28;20510;-62
2021/04/01 05:43:20;;;;;;;17.42;9.40;;;12.60;65.30;;;;;;5030931;28;20140;-62
2021/04/01 05:45:49;;;;;;;18.95;8.48;;;12.60;65.40;;;;;;5034304;28;20983;-62
2021/04/01 05:48:25;;;;;;;14.38;8.00;;;12.70;65.50;;;;;;5030332;28;20575;-62
2021/04/01 05:51:25;;;;;;;15.27;7.90;;;12.80;65.10;;;;;;5031120;28;20111;-62
2021/04/01 06:04:36;;;;;;;14.90;8.48;;;13.00;63.40;;;;;;4997650;28;20097;-62
2021/04/01 06:07:13;;;;;;;15.15;8.93;;;13.00;62.90;;;;;;5031759;28;20032;-62
2021/04/01 06:09:45;;;;;;;16.42;9.80;;;13.00;63.00;;;;;;5032434;28;20098;-62
2021/04/01 06:12:11;;;;;;;17.27;9.40;;;13.00;62.60;;;;;;5032219;28;20214;-62
2021/04/01 06:15:11;;;;;;;15.93;9.27;;;13.00;63.40;;;;;;5031626;28;20884;-62
2021/04/01 06:17:46;;;;;;;17.95;8.75;;;13.10;62.90;;;;;;5029264;28;20029;-62
2021/04/01 06:20:13;;;;;;;17.15;10.25;;;13.10;62.50;;;;;;5027490;28;20033;-62
2021/04/01 06:22:40;;;;;;;18.25;9.65;;;13.30;62.20;;;;;;5033878;28;20029;-62
2021/04/01 06:25:15;;;;;;;14.60;9.80;;;13.30;62.20;;;;;;5033857;28;20082;-62
2021/04/01 06:27:54;;;;;;;16.65;9.70;;;13.50;62.50;;;;;;5031038;28;20504;-62
2021/04/01 06:30:26;;;;;;;18.15;10.98;;;13.60;61.00;;;;;;5018102;28;20045;-62
2021/04/01 06:33:10;;;;;;;19.10;10.30;;;13.80;61.00;;;;;;5033555;28;20111;-65
2021/04/01 06:35:53;;;;;;;18.45;11.27;;;13.80;61.40;;;;;;5035801;28;20076;-62
2021/04/01 06:38:20;;;;;;;17.52;10.23;;;13.90;61.40;;;;;;5030849;28;20125;-62
2021/04/01 06:40:53;;;;;;;19.77;11.23;;;14.00;60.90;;;;;;5031344;28;21051;-62
2021/04/01 06:43:32;;;;;;;18.80;10.45;;;14.10;61.30;;;;;;5037008;28;20495;-63
2021/04/01 06:46:01;;;;;;;21.95;10.27;;;14.20;61.40;;;;;;5029462;28;20926;-62
2021/04/01 06:49:22;;;;;;;20.73;10.93;;;14.20;60.30;;;;;;5024284;28;20080;-62
2021/04/01 06:51:53;;;;;;;19.73;10.82;;;14.30;61.20;;;;;;5027846;28;20460;-62
2021/04/01 06:55:06;;;;;;;20.38;11.40;;;14.50;60.50;;;;;;5028815;28;20060;-62
2021/04/01 06:57:22;;;;;;;18.92;10.70;;;14.70;59.80;;;;;;5021847;28;20040;-62
2021/04/01 07:00:15;;;;;;;19.73;11.63;;;14.90;58.60;;;;;;5035310;28;20124;-62
2021/04/01 07:02:49;;;;;;;18.98;9.43;;;15.00;58.60;;;;;;5024617;28;20029;-62
2021/04/01 07:05:34;;;;;;;19.75;10.85;;;15.10;58.60;;;;;;5027027;28;20025;-62
2021/04/01 07:08:06;;;;;;;27.30;12.20;;;15.20;57.90;;;;;;5030577;28;20131;-62
2021/04/01 07:10:44;;;;;;;18.60;11.05;;;15.20;58.10;;;;;;5033877;28;20036;-62
2021/04/01 07:13:15;;;;;;;21.10;11.40;;;15.30;58.60;;;;;;5024233;28;20043;-63
2021/04/01 07:15:45;;;;;;;18.90;10.93;;;15.30;58.40;;;;;;5031886;28;20041;-63
2021/04/01 07:48:43;;;;;;;28.73;12.45;;;16.40;55.30;;;;;;3606361;39;20059;-63
2021/04/01 07:51:31;;;;;;;25.70;11.82;;;16.50;54.80;;;;;;3607728;39;20701;-63
2021/04/01 07:53:58;;;;;;;22.48;11.95;;;16.60;54.10;;;;;;3612723;39;20150;-64
2021/04/01 07:56:29;;;;;;;24.63;11.85;;;16.80;53.70;;;;;;3606110;39;20060;-63
2021/04/01 07:59:17;;;;;;;21.85;12.73;;;17.00;53.40;;;;;;3608717;39;20060;-62
2021/04/01 08:04:53;;;;;;;18.67;11.10;;;18.20;52.80;;;;;;3608186;39;20097;-63
2021/04/01 08:07:21;;;;;;;19.95;11.77;;;18.90;50.70;;;;;;3605696;39;20059;-62
2021/04/01 08:09:52;;;;;;;19.33;11.30;;;19.30;49.60;;;;;;3607452;39;20207;-63
2021/04/01 08:12:25;;;;;;;25.98;13.25;;;19.70;49.00;;;;;;3607582;39;20184;-62
2021/04/01 08:15:06;;;;;;;24.00;12.68;;;20.00;47.70;;;;;;3606690;39;20052;-63
2021/04/01 08:20:25;;;;;;;23.88;12.50;;;20.70;46.70;;;;;;3605196;39;20085;-63
2021/04/01 08:23:04;;;;;;;25.58;12.77;;;20.90;45.30;;;;;;3610844;39;20170;-63
2021/04/01 08:25:38;;;;;;;22.13;13.50;;;21.00;43.70;;;;;;3606364;39;20105;-63
2021/04/01 08:36:10;;;;;;;28.45;15.65;;;21.80;42.50;;;;;;3600845;39;20408;-63
2021/04/01 08:38:39;;;;;;;27.55;15.05;;;21.50;44.10;;;;;;3609928;39;20056;-63
2021/04/01 08:41:34;;;;;;;30.70;17.35;;;21.10;44.50;;;;;;3606039;39;20082;-63
2021/04/01 08:44:12;;;;;;;31.25;17.85;;;20.80;45.10;;;;;;3598105;39;20063;-62
2021/04/01 08:46:58;;;;;;;30.77;15.90;;;20.50;46.10;;;;;;3605607;39;20182;-62
2021/04/01 08:49:47;;;;;;;27.90;15.48;;;20.10;46.30;;;;;;3600879;39;20072;-58
2021/04/01 08:52:59;;;;;;;30.15;16.13;;;19.80;47.50;;;;;;3607660;39;20078;-58
2021/04/01 08:55:35;;;;;;;31.35;16.80;;;19.50;49.50;;;;;;3599159;39;20776;-59
2021/04/01 08:58:08;;;;;;;29.42;15.30;;;19.30;50.20;;;;;;3599081;39;20267;-58
2021/04/01 09:00:36;;;;;;;27.17;15.48;;;19.20;50.60;;;;;;3603213;39;20313;-58
2021/04/01 09:03:03;;;;;;;24.55;14.20;;;19.00;50.70;;;;;;3596022;39;20168;-58
2021/04/01 09:05:29;;;;;;;24.38;14.25;;;18.90;51.80;;;;;;3595845;39;20063;-58
2021/04/01 09:08:01;;;;;;;31.33;18.60;;;18.80;52.90;;;;;;3598070;39;20106;-64
2021/04/01 09:15:36;;;;;;;29.50;17.75;;;18.50;54.50;;;;;;3600528;39;20189;-58
2021/04/01 09:18:03;;;;;;;32.78;18.23;;;18.40;55.80;;;;;;3601739;39;20076;-59
2021/04/01 09:20:29;;;;;;;31.90;17.77;;;18.30;57.30;;;;;;3602833;39;20162;-59
2021/04/01 09:23:03;;;;;;;36.72;20.63;;;18.30;59.00;;;;;;3600184;39;20158;-63
2021/04/01 09:25:40;;;;;;;32.53;20.35;;;18.20;58.80;;;;;;3599347;39;20137;-69
2021/04/01 09:28:08;;;;;;;32.55;18.40;;;18.20;60.70;;;;;;3595066;39;20052;-70
2021/04/01 09:30:34;;;;;;;35.85;20.20;;;18.20;60.10;;;;;;3598015;39;20059;-63
2021/04/01 09:33:10;;;;;;;33.75;20.33;;;18.10;58.20;;;;;;3591145;39;20052;-63
2021/04/01 09:35:39;;;;;;;38.58;21.48;;;18.10;59.10;;;;;;3596805;39;20091;-63
2021/04/01 09:38:08;;;;;;;37.05;19.25;;;18.10;57.50;;;;;;3598269;39;20075;-63
2021/04/01 09:40:39;;;;;;;35.70;20.52;;;18.20;56.70;;;;;;3599931;39;20056;-67
2021/04/01 09:43:13;;;;;;;33.45;20.30;;;18.30;55.80;;;;;;3596315;39;20051;-63
2021/04/01 09:45:40;;;;;;;34.25;19.77;;;18.50;56.60;;;;;;3600893;39;20056;-63
2021/04/01 09:48:06;;;;;;;39.90;22.50;;;18.50;57.10;;;;;;3598222;39;20052;-63
2021/04/01 09:50:34;;;;;;;33.70;20.52;;;18.70;56.60;;;;;;3598806;39;20139;-63
2021/04/01 09:53:03;;;;;;;34.53;19.13;;;18.80;55.70;;;;;;3600172;39;20715;-63
2021/04/01 09:55:44;;;;;;;33.97;20.67;;;18.90;55.10;;;;;;3598864;39;20060;-64
2021/04/01 09:58:25;;;;;;;34.25;18.60;;;19.00;53.40;;;;;;3593872;39;20120;-63
2021/04/01 10:03:33;;;;;;;37.08;21.40;;;19.50;51.70;;;;;;3600091;39;20181;-63
2021/04/01 10:05:59;;;;;;;33.63;20.38;;;19.70;51.40;;;;;;3596438;39;20106;-63
2021/04/01 10:08:32;;;;;;;36.95;21.30;;;19.90;51.00;;;;;;3599716;39;20090;-62
2021/04/01 10:11:08;;;;;;;34.83;20.25;;;20.00;48.70;;;;;;3597686;39;20066;-62
2021/04/01 10:13:34;;;;;;;38.78;22.55;;;20.10;49.70;;;;;;3597125;39;20426;-63
2021/04/01 10:16:01;;;;;;;36.42;20.75;;;20.10;49.10;;;;;;3595743;39;20174;-63
2021/04/01 10:18:28;;;;;;;36.05;20.98;;;19.90;48.60;;;;;;3597695;39;20056;-63
2021/04/01 10:21:02;;;;;;;38.28;20.45;;;19.80;49.60;;;;;;3598107;39;20073;-63
2021/04/01 10:23:32;;;;;;;35.95;19.38;;;19.80;49.30;;;;;;3595536;39;20059;-63
2021/04/01 10:26:09;;;;;;;35.35;19.70;;;20.10;48.50;;;;;;3591926;39;20048;-62
2021/04/01 10:31:17;;;;;;;37.13;20.10;;;20.30;45.60;;;;;;3599094;39;20424;-63
2021/04/01 10:33:51;;;;;;;37.20;21.10;;;20.40;46.40;;;;;;3598426;39;20075;-62
2021/04/01 10:36:17;;;;;;;36.28;20.42;;;20.40;47.10;;;;;;3597599;39;20179;-63
2021/04/01 10:38:45;;;;;;;39.28;20.33;;;20.40;46.80;;;;;;3598961;39;20043;-63
2021/04/01 10:41:19;;;;;;;35.25;19.52;;;20.30;47.70;;;;;;3593873;39;20063;-63
2021/04/01 10:43:45;;;;;;;41.03;23.05;;;20.20;48.60;;;;;;3603207;39;20366;-63
2021/04/01 10:46:19;;;;;;;35.47;20.90;;;20.10;49.40;;;;;;3600456;39;20462;-68
2021/04/01 10:48:51;;;;;;;41.15;21.80;;;20.20;49.80;;;;;;3600932;39;20173;-63
2021/04/01 10:51:17;;;;;;;37.42;20.45;;;20.20;50.10;;;;;;3596812;39;20064;-62
2021/04/01 10:53:44;;;;;;;33.45;20.23;;;20.30;48.90;;;;;;3595578;39;20091;-63
2021/04/01 10:56:13;;;;;;;35.85;21.30;;;20.30;48.20;;;;;;3598529;39;20095;-63
2021/04/01 10:58:53;;;;;;;38.28;21.67;;;20.30;48.20;;;;;;3599658;39;20055;-63
2021/04/01 11:01:21;;;;;;;44.17;22.95;;;20.30;48.50;;;;;;3596807;39;20528;-62
2021/04/01 11:03:57;;;;;;;43.20;21.65;;;20.20;47.70;;;;;;3597078;39;20168;-63
2021/04/01 11:06:27;;;;;;;39.00;22.05;;;20.10;47.50;;;;;;3600345;39;20047;-63
2021/04/01 11:08:55;;;;;;;42.15;21.92;;;19.90;47.80;;;;;;3600553;39;20559;-63
2021/04/01 11:11:23;;;;;;;43.40;24.55;;;19.70;49.60;;;;;;3598831;39;20083;-62
2021/04/01 11:13:50;;;;;;;33.95;20.02;;;19.50;51.70;;;;;;3599109;39;20793;-62
2021/04/01 11:16:20;;;;;;;36.15;21.42;;;19.30;52.20;;;;;;3598966;39;20479;-63
2021/04/01 11:18:49;;;;;;;38.38;21.00;;;19.20;52.80;;;;;;3601116;39;20067;-63
2021/04/01 11:21:19;;;;;;;35.72;21.48;;;19.00;52.90;;;;;;3597448;39;20064;-63
2021/04/01 11:23:45;;;;;;;40.63;22.60;;;18.90;54.60;;;;;;3598795;39;20059;-63
2021/04/01 11:26:11;;;;;;;35.97;21.35;;;18.90;57.00;;;;;;3598358;39;20098;-62
2021/04/01 11:28:49;;;;;;;36.13;20.55;;;18.80;56.20;;;;;;3598481;39;20858;-63
2021/04/01 11:31:26;;;;;;;36.47;22.00;;;18.70;59.00;;;;;;3597747;39;20079;-63
2021/04/01 11:33:56;;;;;;;37.42;22.35;;;18.60;60.70;;;;;;3596188;39;20068;-62
2021/04/01 11:36:23;;;;;;;39.10;22.88;;;18.50;58.20;;;;;;3600392;39;20059;-63
2021/04/01 11:38:57;;;;;;;37.03;21.38;;;18.40;59.60;;;;;;3600207;39;20059;-63
2021/04/01 11:41:26;;;;;;;43.10;23.77;;;18.30;60.30;;;;;;3597607;39;20159;-63
2021/04/01 11:43:57;;;;;;;38.30;22.42;;;18.00;64.10;;;;;;3598972;39;20066;-62
2021/04/01 11:46:28;;;;;;;36.75;21.23;;;17.90;64.10;;;;;;3597628;39;20051;-64
2021/04/01 11:48:56;;;;;;;33.70;19.98;;;17.90;63.50;;;;;;3593328;39;20094;-63
2021/04/01 11:51:33;;;;;;;39.97;21.55;;;17.90;65.80;;;;;;3594615;39;20095;-62
2021/04/01 11:54:03;;;;;;;39.80;21.70;;;17.90;64.20;;;;;;3600176;39;20060;-62
2021/04/01 11:56:38;;;;;;;36.17;21.33;;;18.10;62.20;;;;;;3593491;39;20089;-63
2021/04/01 11:59:11;;;;;;;39.03;21.15;;;18.30;59.40;;;;;;3595659;39;20138;-63
2021/04/01 12:01:56;;;;;;;43.40;22.80;;;18.50;57.10;;;;;;3594484;39;20068;-62
2021/04/01 12:04:25;;;;;;;48.42;23.13;;;18.70;55.80;;;;;;3600334;39;20067;-62
2021/04/01 12:06:51;;;;;;;50.33;24.65;;;18.70;54.70;;;;;;3602127;39;20055;-63
2021/04/01 12:09:17;;;;;;;42.55;23.95;;;18.70;54.80;;;;;;3600823;39;20467;-64
2021/04/01 12:11:44;;;;;;;44.70;23.40;;;18.80;54.60;;;;;;3599253;39;20079;-62
2021/04/01 12:14:13;;;;;;;43.80;23.35;;;19.00;55.40;;;;;;3601725;39;20071;-63
2021/04/01 12:16:39;;;;;;;40.42;22.75;;;19.10;54.90;;;;;;3603378;39;20055;-62
2021/04/01 12:19:05;;;;;;;44.22;22.70;;;19.00;55.10;;;;;;3602613;39;20124;-62
2021/04/01 12:21:32;;;;;;;40.60;20.20;;;19.00;54.20;;;;;;3598411;39;20064;-62
2021/04/01 12:24:02;;;;;;;44.08;23.50;;;19.00;53.10;;;;;;3598609;39;20059;-62
2021/04/01 12:26:30;;;;;;;42.35;22.95;;;18.90;57.40;;;;;;3599184;39;20063;-62
2021/04/01 12:28:57;;;;;;;35.80;20.90;;;18.70;60.50;;;;;;3602659;39;20112;-62
2021/04/01 12:31:37;;;;;;;43.97;23.30;;;18.60;61.40;;;;;;3600409;39;20552;-63
2021/04/01 12:34:03;;;;;;;43.15;22.35;;;18.50;62.50;;;;;;3596810;39;20473;-63
2021/04/01 12:36:33;;;;;;;38.65;21.13;;;18.40;60.40;;;;;;3599873;39;20260;-62
2021/04/01 12:38:59;;;;;;;34.40;20.08;;;18.40;61.70;;;;;;3599911;39;20820;-63
2021/04/01 12:41:25;;;;;;;40.60;21.63;;;18.60;61.50;;;;;;3601797;39;20056;-63
2021/04/01 12:43:52;;;;;;;38.15;21.27;;;18.80;60.60;;;;;;3604952;39;20056;-63
2021/04/01 12:46:18;;;;;;;46.47;22.42;;;19.00;58.60;;;;;;3604832;39;20086;-63
2021/04/01 12:48:50;;;;;;;49.80;24.42;;;19.10;57.10;;;;;;3599700;39;20251;-63
2021/04/01 12:51:20;;;;;;;47.22;25.45;;;19.20;55.00;;;;;;3602630;39;20176;-62
2021/04/01 12:54:04;;;;;;;53.33;26.25;;;19.30;54.40;;;;;;3602257;39;20059;-65
2021/04/01 12:56:34;;;;;;;52.13;25.30;;;19.30;50.80;;;;;;3598491;39;20063;-62
2021/04/01 12:59:08;;;;;;;54.53;25.85;;;19.30;51.00;;;;;;3597819;39;20079;-62
2021/04/01 13:04:05;;;;;;;58.10;27.27;;;19.40;51.00;;;;;;3600454;39;20060;-63
2021/04/01 13:06:44;;;;;;;56.35;26.38;;;19.50;49.70;;;;;;3600065;39;20072;-62
2021/04/01 13:11:42;;;;;;;55.60;25.38;;;19.60;48.70;;;;;;3599503;39;20068;-62
2021/04/01 13:14:08;;;;;;;54.70;26.90;;;19.70;48.50;;;;;;3604129;39;20893;-62
2021/04/01 13:16:34;;;;;;;52.22;24.50;;;19.70;48.20;;;;;;3602393;39;20160;-62
2021/04/01 13:19:01;;;;;;;52.38;25.40;;;19.70;48.90;;;;;;3597731;39;20086;-63
2021/04/01 13:24:23;;;;;;;53.65;25.90;;;19.70;48.50;;;;;;3596645;39;20059;-61
2021/04/01 13:26:51;;;;;;;49.63;25.48;;;19.80;49.20;;;;;;3598499;39;20060;-62
2021/04/01 13:29:21;;;;;;;53.33;26.38;;;19.80;48.70;;;;;;3597042;39;20088;-62
2021/04/01 13:32:00;;;;;;;48.85;25.90;;;19.80;48.70;;;;;;3598600;39;20094;-61
2021/04/01 13:39:31;;;;;;;54.92;25.75;;;19.70;49.20;;;;;;3595645;39;20052;-62
2021/04/01 13:44:49;;;;;;;49.33;27.42;;;19.60;48.50;;;;;;3601967;39;20081;-62
2021/04/01 13:47:16;;;;;;;55.78;28.42;;;19.50;48.50;;;;;;3599392;39;20052;-62
2021/04/01 13:49:43;;;;;;;51.50;26.33;;;19.40;50.30;;;;;;3600886;39;20056;-61
2021/04/01 14:09:00;;;;;;;51.47;29.77;;;18.70;50.90;;;;;;3605090;39;20474;-62
2021/04/01 14:11:27;;;;;;;61.53;34.10;;;18.70;50.60;;;;;;3595542;39;20064;-62
2021/04/01 14:13:52;;;;;;;65.88;33.70;;;18.70;51.80;;;;;;3599488;39;20052;-62
2021/04/01 14:16:19;;;;;;;65.68;35.70;;;18.60;52.30;;;;;;3599381;39;20048;-63
2021/04/01 14:18:47;;;;;;;62.78;35.13;;;18.60;52.10;;;;;;3599408;39;20167;-63
2021/04/01 14:21:15;;;;;;;64.68;32.67;;;18.60;52.40;;;;;;3604232;39;20075;-62
2021/04/01 14:23:42;;;;;;;69.13;37.10;;;18.60;52.00;;;;;;3601142;39;20067;-63
2021/04/01 14:26:59;;;;;;;64.68;34.72;;;18.50;50.90;;;;;;3600017;39;20066;-62
2021/04/01 14:28:54;;;;;;;62.08;34.70;;;18.50;52.20;;;;;;3598788;39;20056;-62
2021/04/01 14:31:20;;;;;;;67.03;35.83;;;18.40;52.60;;;;;;3599020;39;20770;-62
2021/04/01 14:33:48;;;;;;;63.65;35.10;;;18.30;53.00;;;;;;3599033;39;20062;-63
2021/04/01 14:36:18;;;;;;;53.42;29.42;;;18.20;53.90;;;;;;3594715;39;20086;-63
2021/04/01 14:38:44;;;;;;;40.03;23.92;;;18.00;54.60;;;;;;3597055;39;20139;-62
2021/04/01 14:41:16;;;;;;;37.03;21.30;;;17.90;56.40;;;;;;3601284;39;20157;-61
2021/04/01 14:43:57;;;;;;;43.90;23.98;;;17.80;56.60;;;;;;3598679;39;20072;-61
2021/04/01 14:46:24;;;;;;;37.08;20.95;;;17.80;56.80;;;;;;3596979;39;20060;-62
2021/04/01 14:48:50;;;;;;;36.38;19.75;;;17.70;57.70;;;;;;3596780;39;20781;-63
2021/04/01 14:51:16;;;;;;;33.30;20.15;;;17.60;57.80;;;;;;3594904;39;20068;-62